Mexico City Airport, Mexico

12:46 AM CDT on July 24, 2016 (GMT -0500)
Lic Benito Juarez International | | Change Station

Elev 7343 ft 19.43 °N, 99.10 °W | Updated 8 minutes ago

Scattered Clouds
Scattered Clouds
61 °F
Feels Like 61 °F
N
9
Wind Variable Wind from ENE

Today
High -- | Low -- °F
--% Chance of Precip.
Yesterday
High -- | Low -- °F
Precip. -- in
Pressure 30.39 in
Visibility 10.0 miles
Clouds Scattered Clouds 8000 ft
Scattered Clouds 20000 ft
Dew Point 52 °F
Humidity 72%
Rainfall 0.00 in
Snow Depth Not available.
7:10 AM 8:15 PM
Waning Gibbous, 79% visible
SPECI MMMX 240538Z 07008KT 10SM SCT080 SCT200 16/11 A3039 NOSIG RMK 8/032 HZY
Pressure 30.39 in
Visibility 10.0 miles
Clouds Scattered Clouds 8000 ft
Scattered Clouds 20000 ft
Dew Point 52 °F
Humidity 72%
Rainfall 0.00 in
Snow Depth Not available.
7:10 AM 8:15 PM
Waning Gibbous, 79% visible
SPECI MMMX 240538Z 07008KT 10SM SCT080 SCT200 16/11 A3039 NOSIG RMK 8/032 HZY

10-Day Weather Forecast

No radar image for this location.
×

Almanac

Astronomy

Jul. 24, 2016 Rise Set
Actual Time
Civil Twilight
Nautical Twilight
Astronomical Twilight
Moon
Length of Visible Light
Length of Day
Tomorrow will be .
, % of the Moon is Illuminated

Today's Extremes

Country Highs Country Lows

Community

WunderPhotos

Upload Photos

1,927,039 photos uploaded!

WunderBlog® & News

Nearby

Air Quality

  Air Quality AQ Index Pollutant
Not available.

Snow Depth

Station Depth Elevation

Earthquake Activity

City Distance Mag. Time & Date
Minimum magnitude displayed is 2.5.

Coastal Water Temperatures

Place Temperature

Stations

Nearby Weather Stations

Station Location Temp. Windchill Dew Point Humidity Wind Precip. Elev Updated Type